Time;durP1;ratioP1;P1;durP2;ratioP2;P2;SDS_P1;SDS_P2;PMS_P1;PMS_P2;Temp;Humidity;BMP_temperature;BMP_pressure;BME280_temperature;BME280_humidity;BME280_pressure;Samples;Min_cycle;Max_cycle;Signal;HPM_P1;HPM_P2
2022/03/11 00:01:59;;;;;;;8.33;7.33;;;10.20;49.70;;;;;;5014732;28;20809;-67
2022/03/11 00:04:25;;;;;;;9.27;7.73;;;10.20;48.90;;;;;;5013528;28;20220;-66
2022/03/11 00:06:50;;;;;;;9.30;8.40;;;10.30;49.20;;;;;;5032589;28;20185;-67
2022/03/11 00:09:17;;;;;;;8.80;7.27;;;10.30;49.40;;;;;;5031427;28;20182;-72
2022/03/11 00:11:43;;;;;;;9.53;8.47;;;10.20;48.50;;;;;;5031790;28;20204;-67
2022/03/11 00:14:09;;;;;;;9.53;8.57;;;10.30;48.40;;;;;;5033900;28;20434;-67
2022/03/11 00:16:34;;;;;;;10.00;9.10;;;10.30;48.20;;;;;;5014972;28;20178;-67
2022/03/11 00:19:00;;;;;;;9.40;8.40;;;10.40;48.80;;;;;;4998308;28;20235;-67
2022/03/11 00:21:26;;;;;;;9.50;8.00;;;10.40;49.40;;;;;;5031742;28;20217;-67
2022/03/11 00:23:51;;;;;;;11.97;9.80;;;10.50;49.60;;;;;;5029607;28;20187;-67
2022/03/11 00:26:17;;;;;;;8.50;7.50;;;10.50;48.80;;;;;;5006758;28;20189;-68
2022/03/11 00:28:43;;;;;;;8.80;7.87;;;10.50;49.20;;;;;;5032102;28;20176;-67
2022/03/11 00:31:09;;;;;;;8.63;7.40;;;10.50;48.90;;;;;;5032549;28;20224;-66
2022/03/11 00:33:34;;;;;;;9.80;8.10;;;10.40;48.50;;;;;;5031035;28;20779;-67
2022/03/11 00:36:01;;;;;;;9.90;7.80;;;10.50;48.20;;;;;;5032085;28;20196;-67
2022/03/11 00:38:26;;;;;;;9.40;8.20;;;10.50;48.50;;;;;;5030611;28;20181;-67
2022/03/11 00:40:56;;;;;;;8.50;7.63;;;10.60;47.70;;;;;;5013439;28;20439;-67
2022/03/11 00:43:26;;;;;;;8.27;7.47;;;10.70;47.90;;;;;;5032383;28;20657;-67
2022/03/11 00:45:52;;;;;;;11.43;8.47;;;10.50;47.10;;;;;;5032430;28;20425;-67
2022/03/11 00:48:20;;;;;;;8.53;7.47;;;10.60;47.30;;;;;;5031470;28;20774;-68
2022/03/11 00:50:46;;;;;;;10.53;9.53;;;10.70;48.20;;;;;;5019648;28;20465;-67
2022/03/11 00:53:12;;;;;;;7.90;6.93;;;10.80;48.60;;;;;;5019553;28;20436;-77
2022/03/11 00:55:38;;;;;;;9.13;7.97;;;10.80;48.60;;;;;;5024264;28;20432;-68
2022/03/11 00:58:05;;;;;;;10.70;8.83;;;10.80;48.50;;;;;;4991521;28;20519;-68
2022/03/11 01:00:31;;;;;;;8.80;7.43;;;10.80;47.80;;;;;;5023622;28;20491;-68
2022/03/11 01:02:57;;;;;;;9.97;7.43;;;10.70;47.70;;;;;;5024104;28;20465;-68
2022/03/11 01:05:23;;;;;;;9.47;8.37;;;10.70;47.80;;;;;;5025596;28;20427;-68
2022/03/11 01:07:49;;;;;;;9.70;8.23;;;10.70;47.70;;;;;;5008072;28;20415;-68
2022/03/11 01:10:15;;;;;;;10.70;8.20;;;10.70;47.90;;;;;;5023721;28;20187;-78
2022/03/11 01:12:42;;;;;;;9.60;7.83;;;10.80;48.00;;;;;;5008342;28;20419;-71
2022/03/11 01:15:09;;;;;;;9.83;8.90;;;10.90;47.60;;;;;;5023691;28;20429;-67
2022/03/11 01:17:35;;;;;;;12.23;11.07;;;10.90;47.60;;;;;;5022808;28;21036;-68
2022/03/11 01:20:00;;;;;;;10.23;9.23;;;10.90;47.70;;;;;;5025709;28;20414;-68
2022/03/11 01:22:26;;;;;;;11.73;9.40;;;10.80;47.90;;;;;;5023351;28;20463;-68
2022/03/11 01:24:52;;;;;;;11.10;8.90;;;10.70;47.90;;;;;;5007237;28;20569;-71
2022/03/11 01:27:18;;;;;;;10.40;9.30;;;10.80;48.20;;;;;;5021806;28;20625;-68
2022/03/11 01:29:43;;;;;;;9.50;8.57;;;10.80;48.10;;;;;;5023535;28;20181;-68
2022/03/11 01:32:09;;;;;;;11.13;9.10;;;10.90;48.30;;;;;;5021050;28;20194;-68
2022/03/11 01:34:35;;;;;;;11.37;9.03;;;10.90;48.20;;;;;;5009906;28;20421;-68
2022/03/11 01:37:01;;;;;;;9.80;8.77;;;10.80;48.30;;;;;;5024533;28;20183;-68
2022/03/11 01:39:26;;;;;;;12.90;9.87;;;10.90;48.50;;;;;;5024610;28;20176;-68
2022/03/11 01:41:52;;;;;;;9.33;8.43;;;11.00;48.60;;;;;;5022901;28;20207;-68
2022/03/11 01:44:18;;;;;;;11.80;9.70;;;10.80;48.50;;;;;;5021982;28;20264;-68
2022/03/11 01:46:44;;;;;;;12.57;11.27;;;10.70;48.60;;;;;;5024324;28;20192;-70
2022/03/11 01:49:11;;;;;;;9.93;8.37;;;10.60;48.80;;;;;;5023301;28;20229;-68
2022/03/11 01:51:42;;;;;;;11.00;9.20;;;10.70;49.00;;;;;;5007589;28;20194;-67
2022/03/11 01:54:09;;;;;;;11.07;9.53;;;10.70;48.90;;;;;;5022875;28;20534;-67
2022/03/11 01:56:36;;;;;;;10.20;8.83;;;10.60;48.90;;;;;;5023999;28;20415;-67
2022/03/11 01:59:03;;;;;;;10.87;9.73;;;10.60;49.20;;;;;;5024268;28;20433;-67
2022/03/11 02:01:29;;;;;;;9.93;8.30;;;10.70;49.20;;;;;;5022201;28;20454;-67
2022/03/11 02:03:57;;;;;;;11.20;9.40;;;10.50;49.40;;;;;;5002541;28;20437;-67
2022/03/11 02:06:23;;;;;;;11.10;9.67;;;10.50;49.40;;;;;;5025516;28;20420;-67
2022/03/11 02:08:50;;;;;;;11.30;9.67;;;10.60;49.80;;;;;;5031851;28;20428;-69
2022/03/11 02:11:16;;;;;;;11.87;9.50;;;10.70;49.20;;;;;;5023971;28;20504;-77
2022/03/11 02:13:47;;;;;;;11.07;9.63;;;10.50;49.00;;;;;;5008220;28;20513;-67
2022/03/11 02:16:14;;;;;;;13.30;10.57;;;10.50;49.20;;;;;;5026491;28;20414;-72
2022/03/11 02:18:41;;;;;;;11.00;9.37;;;10.50;49.80;;;;;;5014216;28;20471;-68
2022/03/11 02:21:07;;;;;;;11.80;9.30;;;10.50;49.80;;;;;;5025523;28;20421;-67
2022/03/11 02:23:52;;;;;;;11.50;10.30;;;10.50;49.40;;;;;;5030743;28;20451;-68
2022/03/11 02:26:20;;;;;;;11.13;9.97;;;10.60;49.60;;;;;;5023786;28;20506;-71
2022/03/11 02:28:47;;;;;;;12.20;8.90;;;10.60;49.50;;;;;;5021742;28;20423;-68
2022/03/11 02:31:13;;;;;;;11.17;9.70;;;10.60;49.50;;;;;;5022653;28;20434;-67
2022/03/11 02:33:39;;;;;;;11.60;9.67;;;10.60;49.50;;;;;;5024513;28;20527;-67
2022/03/11 02:36:05;;;;;;;12.60;8.73;;;10.60;49.50;;;;;;5026168;28;20456;-70
2022/03/11 02:38:32;;;;;;;12.17;9.87;;;10.70;49.50;;;;;;5021653;28;20419;-68
2022/03/11 02:40:58;;;;;;;12.00;9.90;;;10.70;49.60;;;;;;5023051;28;20443;-68
2022/03/11 02:43:24;;;;;;;11.37;10.17;;;10.60;49.50;;;;;;5023092;28;20450;-67
2022/03/11 02:45:51;;;;;;;10.93;9.57;;;10.70;49.50;;;;;;5022612;28;20421;-67
2022/03/11 02:48:17;;;;;;;11.73;8.90;;;10.70;50.00;;;;;;5023317;28;20956;-77
2022/03/11 02:50:43;;;;;;;11.23;9.90;;;10.50;49.90;;;;;;5020466;28;20458;-67
2022/03/11 02:53:10;;;;;;;14.53;12.03;;;10.50;50.10;;;;;;5022285;28;20432;-67
2022/03/11 02:55:36;;;;;;;14.10;9.30;;;10.40;50.30;;;;;;5021229;28;20412;-72
2022/03/11 02:58:01;;;;;;;14.50;11.73;;;10.30;49.90;;;;;;5004889;28;20422;-67
2022/03/11 03:00:27;;;;;;;13.07;10.20;;;10.20;50.00;;;;;;5023147;28;20448;-67
2022/03/11 03:02:53;;;;;;;12.07;9.43;;;10.10;50.20;;;;;;5006980;28;20206;-67
2022/03/11 03:05:19;;;;;;;13.47;10.77;;;10.10;50.40;;;;;;5019960;28;20180;-69
2022/03/11 03:07:44;;;;;;;12.50;8.90;;;10.10;50.60;;;;;;5023192;28;20183;-67
2022/03/11 03:10:13;;;;;;;11.33;10.23;;;10.00;50.40;;;;;;5015377;28;20184;-67
2022/03/11 03:12:39;;;;;;;12.10;10.40;;;10.10;50.30;;;;;;5014881;28;20263;-67
2022/03/11 03:15:08;;;;;;;12.17;10.63;;;10.30;50.10;;;;;;5031358;28;20416;-67
2022/03/11 03:17:35;;;;;;;10.90;9.80;;;10.20;49.80;;;;;;5014928;28;20415;-67
2022/03/11 03:20:02;;;;;;;13.00;11.70;;;10.20;49.60;;;;;;5032216;28;20527;-67
2022/03/11 03:22:28;;;;;;;16.80;12.83;;;10.30;49.50;;;;;;5022869;28;20466;-67
2022/03/11 03:24:53;;;;;;;11.67;10.37;;;10.20;49.40;;;;;;5013648;28;20457;-67
2022/03/11 03:27:19;;;;;;;18.80;10.70;;;10.20;49.40;;;;;;5030258;28;20588;-74
2022/03/11 03:29:45;;;;;;;11.40;9.87;;;10.10;49.30;;;;;;5032882;28;20190;-67
2022/03/11 03:32:11;;;;;;;12.47;11.23;;;9.90;50.40;;;;;;5032830;28;20213;-67
2022/03/11 03:34:37;;;;;;;12.80;9.97;;;9.90;50.50;;;;;;5032387;28;20735;-67
2022/03/11 03:37:07;;;;;;;12.40;11.10;;;10.00;49.80;;;;;;5020924;28;20188;-67
2022/03/11 03:39:34;;;;;;;11.43;9.93;;;9.90;50.20;;;;;;5012616;28;20418;-68
2022/03/11 03:42:00;;;;;;;12.30;9.63;;;9.80;50.60;;;;;;5013207;28;20460;-67
2022/03/11 03:44:25;;;;;;;11.63;9.97;;;9.90;50.50;;;;;;5028359;28;20441;-67
2022/03/11 03:46:51;;;;;;;11.57;9.90;;;9.90;50.60;;;;;;5017742;28;20180;-67
2022/03/11 03:49:18;;;;;;;12.53;9.80;;;9.90;51.00;;;;;;5013037;28;20314;-78
2022/03/11 03:51:44;;;;;;;11.90;10.13;;;10.00;49.80;;;;;;5026910;28;20431;-67
2022/03/11 03:54:10;;;;;;;12.20;10.37;;;10.10;49.90;;;;;;5032699;28;20426;-67
2022/03/11 03:56:42;;;;;;;13.40;11.77;;;10.00;49.50;;;;;;5029044;28;20419;-67
2022/03/11 03:59:10;;;;;;;14.23;11.23;;;10.10;49.70;;;;;;5032299;28;20420;-67
2022/03/11 04:01:37;;;;;;;15.23;11.73;;;10.10;49.70;;;;;;5018455;28;20458;-67
2022/03/11 04:04:04;;;;;;;13.73;10.47;;;10.10;49.40;;;;;;4995241;28;21111;-68
2022/03/11 04:06:31;;;;;;;13.37;10.50;;;9.90;50.30;;;;;;5015048;28;20510;-68
2022/03/11 04:08:58;;;;;;;13.50;11.40;;;9.90;50.30;;;;;;5012526;28;20754;-66
2022/03/11 04:11:24;;;;;;;13.40;10.87;;;9.90;50.50;;;;;;5028552;28;20438;-69
2022/03/11 04:13:50;;;;;;;12.10;10.13;;;9.90;50.60;;;;;;5003907;28;20424;-68
2022/03/11 04:16:16;;;;;;;14.37;11.57;;;9.80;50.60;;;;;;5022824;28;20762;-68
2022/03/11 04:18:42;;;;;;;13.27;11.87;;;9.60;50.80;;;;;;5014901;28;20438;-68
2022/03/11 04:21:08;;;;;;;14.10;11.00;;;9.70;51.00;;;;;;5012583;28;20477;-68
2022/03/11 04:23:34;;;;;;;13.10;10.63;;;9.50;51.10;;;;;;5019979;28;21005;-68
2022/03/11 04:26:01;;;;;;;13.97;11.50;;;9.60;51.40;;;;;;5032248;28;20180;-68
2022/03/11 04:28:27;;;;;;;16.07;11.53;;;9.50;51.30;;;;;;5012090;28;20426;-68
2022/03/11 04:30:52;;;;;;;11.67;10.30;;;9.60;51.60;;;;;;4994426;28;20784;-68
2022/03/11 04:33:18;;;;;;;11.40;10.23;;;9.70;51.40;;;;;;5020500;28;20185;-67
2022/03/11 04:35:44;;;;;;;12.87;11.50;;;9.70;51.20;;;;;;5015663;28;20215;-68
2022/03/11 04:38:10;;;;;;;12.63;11.33;;;9.70;51.10;;;;;;5018244;28;20970;-68
2022/03/11 04:40:36;;;;;;;15.50;12.13;;;9.80;51.20;;;;;;5031209;28;20182;-68
2022/03/11 04:43:02;;;;;;;15.63;12.80;;;9.80;51.20;;;;;;5013754;28;20484;-68
2022/03/11 04:45:28;;;;;;;15.20;11.90;;;9.60;51.00;;;;;;5031353;28;20185;-68
2022/03/11 04:47:54;;;;;;;16.87;12.17;;;9.50;51.10;;;;;;5015828;28;20617;-68
2022/03/11 04:50:20;;;;;;;17.97;13.87;;;9.40;51.20;;;;;;5027710;28;20558;-77
2022/03/11 04:52:46;;;;;;;18.80;13.80;;;9.50;51.20;;;;;;5031551;28;20430;-68
2022/03/11 04:55:15;;;;;;;15.40;13.33;;;9.50;51.00;;;;;;5030894;28;20428;-67
2022/03/11 04:57:41;;;;;;;14.00;11.40;;;9.50;50.90;;;;;;5021815;28;20312;-67
2022/03/11 05:00:08;;;;;;;14.83;11.03;;;9.30;50.80;;;;;;5014806;28;20425;-67
2022/03/11 05:02:34;;;;;;;17.40;13.53;;;9.20;51.10;;;;;;5031077;28;20798;-68
2022/03/11 05:05:05;;;;;;;14.30;12.80;;;9.20;51.40;;;;;;5013823;28;20501;-68
2022/03/11 05:07:31;;;;;;;19.03;13.20;;;9.30;51.50;;;;;;5013349;28;20432;-68
2022/03/11 05:09:57;;;;;;;16.40;13.80;;;9.30;51.50;;;;;;5028896;28;20429;-68
2022/03/11 05:12:22;;;;;;;15.67;11.40;;;9.40;51.30;;;;;;5013216;28;20433;-78
2022/03/11 05:14:51;;;;;;;17.60;13.20;;;9.30;50.80;;;;;;5031449;28;20929;-68
2022/03/11 05:17:17;;;;;;;21.37;11.77;;;9.40;50.90;;;;;;5030502;28;20190;-68
2022/03/11 05:19:46;;;;;;;18.23;14.53;;;9.30;50.70;;;;;;5029956;28;20421;-68
2022/03/11 05:22:12;;;;;;;16.20;13.10;;;9.30;50.80;;;;;;5031489;28;20473;-68
2022/03/11 05:24:38;;;;;;;17.33;13.00;;;9.20;50.90;;;;;;5012966;28;20428;-67
2022/03/11 05:27:07;;;;;;;14.57;11.67;;;9.20;50.90;;;;;;5030751;28;20183;-68
2022/03/11 05:29:34;;;;;;;16.13;12.53;;;9.30;51.00;;;;;;5029665;28;20777;-68
2022/03/11 05:32:01;;;;;;;14.23;12.30;;;9.30;50.70;;;;;;5029749;28;20425;-68
2022/03/11 05:34:27;;;;;;;14.67;12.70;;;9.70;50.80;;;;;;5030491;28;20823;-77
2022/03/11 05:36:53;;;;;;;17.93;12.50;;;9.40;50.50;;;;;;5031273;28;20498;-67
2022/03/11 05:39:19;;;;;;;17.53;14.20;;;9.40;50.10;;;;;;5031151;28;20179;-67
2022/03/11 05:41:46;;;;;;;17.27;13.97;;;9.40;50.40;;;;;;5008973;28;20493;-68
2022/03/11 05:44:12;;;;;;;16.70;12.30;;;9.30;50.30;;;;;;5015615;28;20414;-68
2022/03/11 05:46:38;;;;;;;22.87;18.13;;;9.10;50.60;;;;;;5034133;28;20409;-68
2022/03/11 05:49:04;;;;;;;16.47;12.73;;;9.10;50.80;;;;;;5034374;28;20521;-68
2022/03/11 05:51:30;;;;;;;18.83;14.47;;;9.00;50.70;;;;;;5033774;28;20453;-68
2022/03/11 05:53:56;;;;;;;17.27;14.60;;;8.90;50.90;;;;;;5034257;28;20237;-67
2022/03/11 05:56:22;;;;;;;15.23;12.63;;;9.00;51.10;;;;;;5034623;28;20179;-68
2022/03/11 05:58:50;;;;;;;15.83;12.20;;;9.10;50.80;;;;;;5033394;28;20661;-71
2022/03/11 06:01:18;;;;;;;17.67;14.53;;;9.10;50.80;;;;;;5030339;28;20188;-68
2022/03/11 06:03:45;;;;;;;16.37;14.43;;;9.00;50.60;;;;;;5034137;28;20816;-68
2022/03/11 06:06:12;;;;;;;18.33;13.50;;;9.00;50.80;;;;;;5033279;28;20479;-68
2022/03/11 06:08:38;;;;;;;16.93;12.50;;;9.00;50.90;;;;;;5030447;28;20421;-68
2022/03/11 06:11:04;;;;;;;16.70;14.20;;;9.00;50.70;;;;;;5014967;28;20453;-68
2022/03/11 06:13:30;;;;;;;17.87;13.53;;;9.10;50.60;;;;;;5029160;28;20641;-76
2022/03/11 06:15:55;;;;;;;20.97;14.50;;;9.10;50.90;;;;;;5032944;28;20437;-68
2022/03/11 06:18:21;;;;;;;16.77;12.90;;;9.00;50.50;;;;;;5020502;28;20242;-68
2022/03/11 06:20:47;;;;;;;17.33;14.83;;;9.10;50.80;;;;;;5003188;28;20269;-67
2022/03/11 06:23:13;;;;;;;17.83;12.97;;;9.10;50.40;;;;;;5033636;28;20207;-68
2022/03/11 06:25:39;;;;;;;18.20;13.77;;;9.10;50.30;;;;;;5033164;28;20186;-68
2022/03/11 06:28:05;;;;;;;17.63;12.87;;;9.10;50.70;;;;;;5028055;28;20430;-68
2022/03/11 06:30:30;;;;;;;16.00;12.63;;;9.10;50.60;;;;;;5013759;28;20266;-75
2022/03/11 06:32:56;;;;;;;19.53;14.73;;;9.10;50.50;;;;;;5022754;28;20428;-68
2022/03/11 06:35:22;;;;;;;19.03;13.90;;;9.10;50.50;;;;;;5051950;28;20416;-67
2022/03/11 06:37:52;;;;;;;17.70;13.47;;;9.20;50.70;;;;;;5027298;28;21049;-68
2022/03/11 06:40:19;;;;;;;18.63;14.23;;;9.00;50.10;;;;;;5022138;28;20178;-69
2022/03/11 06:42:47;;;;;;;19.70;13.47;;;9.00;50.70;;;;;;5013577;28;20859;-68
2022/03/11 06:45:14;;;;;;;19.83;14.83;;;9.10;51.00;;;;;;5027932;28;20413;-67
2022/03/11 06:47:41;;;;;;;22.67;15.60;;;8.90;51.00;;;;;;5034574;28;20452;-68
2022/03/11 06:50:07;;;;;;;19.37;13.43;;;8.90;50.90;;;;;;5034903;28;20991;-68
2022/03/11 06:52:33;;;;;;;19.50;13.67;;;8.90;51.00;;;;;;5032266;28;20421;-69
2022/03/11 06:54:59;;;;;;;29.60;13.77;;;9.10;51.40;;;;;;5028912;28;20428;-68
2022/03/11 06:57:25;;;;;;;18.20;13.63;;;9.10;51.60;;;;;;5031845;28;20775;-67
2022/03/11 06:59:51;;;;;;;18.20;14.40;;;9.00;50.70;;;;;;5024066;28;20416;-69
2022/03/11 07:02:18;;;;;;;18.60;14.83;;;8.90;50.50;;;;;;5029603;28;20292;-68
2022/03/11 07:04:44;;;;;;;17.70;13.37;;;8.80;50.90;;;;;;5013069;28;20418;-68
2022/03/11 07:07:10;;;;;;;16.30;12.70;;;8.90;51.00;;;;;;5020916;28;20449;-68
2022/03/11 07:09:36;;;;;;;19.30;13.80;;;9.00;51.10;;;;;;5014384;28;20876;-67
2022/03/11 07:12:03;;;;;;;19.10;14.20;;;8.90;50.80;;;;;;5031670;28;20463;-67
2022/03/11 07:14:36;;;;;;;19.10;13.80;;;9.10;51.20;;;;;;5033375;28;20411;-67
2022/03/11 07:17:06;;;;;;;19.93;14.10;;;9.20;51.90;;;;;;5025714;28;20429;-67
2022/03/11 07:19:32;;;;;;;16.93;13.30;;;9.30;51.90;;;;;;5030380;28;20425;-74
2022/03/11 07:22:03;;;;;;;19.50;13.60;;;9.20;51.00;;;;;;5027209;28;20511;-68
2022/03/11 07:24:29;;;;;;;16.83;14.30;;;9.20;51.30;;;;;;5032204;28;20414;-67
2022/03/11 07:26:55;;;;;;;18.65;16.10;;;9.30;51.20;;;;;;5022836;28;21383;-67
2022/03/11 07:29:21;;;;;;;21.03;15.90;;;9.40;50.80;;;;;;5029620;28;20182;-67
2022/03/11 07:31:47;;;;;;;18.17;13.57;;;9.30;50.90;;;;;;5026548;28;20457;-67
2022/03/11 07:34:13;;;;;;;16.33;13.00;;;9.40;50.70;;;;;;5014834;28;20188;-67
2022/03/11 07:36:38;;;;;;;18.27;13.83;;;9.50;51.10;;;;;;5023582;28;20440;-67
2022/03/11 07:39:06;;;;;;;16.63;14.37;;;9.50;50.40;;;;;;5031112;28;20184;-67
2022/03/11 07:41:33;;;;;;;18.70;13.50;;;9.20;50.20;;;;;;5032928;28;20240;-67
2022/03/11 07:43:59;;;;;;;19.33;13.73;;;9.20;50.40;;;;;;5039740;28;20420;-67
2022/03/11 07:46:27;;;;;;;19.70;14.70;;;9.20;50.70;;;;;;5042482;28;20428;-67
2022/03/11 07:48:54;;;;;;;14.97;13.23;;;9.40;51.20;;;;;;5003526;28;20697;-68
2022/03/11 07:51:20;;;;;;;16.90;13.33;;;9.40;50.90;;;;;;5030668;28;20479;-68
2022/03/11 07:53:46;;;;;;;19.70;13.57;;;9.40;50.70;;;;;;5029367;28;20420;-68
2022/03/11 07:56:13;;;;;;;19.60;14.27;;;9.40;50.60;;;;;;5032574;28;20843;-67
2022/03/11 07:58:41;;;;;;;16.93;13.50;;;9.30;50.40;;;;;;5032546;28;20462;-68
2022/03/11 08:01:08;;;;;;;16.70;13.63;;;9.40;50.90;;;;;;5006423;28;20926;-67
2022/03/11 08:03:34;;;;;;;17.93;14.00;;;9.50;51.10;;;;;;5027203;28;20476;-75
2022/03/11 08:06:00;;;;;;;18.10;15.50;;;9.50;50.70;;;;;;5018170;28;20424;-67
2022/03/11 08:08:27;;;;;;;19.17;14.40;;;9.60;50.90;;;;;;5028598;28;20485;-68
2022/03/11 08:10:54;;;;;;;20.07;15.30;;;9.80;50.60;;;;;;5020503;28;20760;-67
2022/03/11 08:13:23;;;;;;;19.10;14.30;;;9.80;50.90;;;;;;5014796;28;20461;-67
2022/03/11 08:15:49;;;;;;;20.03;14.37;;;9.90;50.80;;;;;;5028388;28;20414;-68
2022/03/11 08:18:14;;;;;;;17.50;15.33;;;10.00;49.70;;;;;;5027287;28;20486;-70
2022/03/11 08:20:41;;;;;;;18.30;14.27;;;10.00;49.30;;;;;;5033152;28;20472;-67
2022/03/11 08:23:08;;;;;;;19.67;15.37;;;9.80;49.60;;;;;;5026555;28;20276;-67
2022/03/11 08:25:35;;;;;;;20.90;14.10;;;9.80;49.50;;;;;;5020127;28;20451;-67
2022/03/11 08:28:01;;;;;;;18.23;15.83;;;9.80;49.50;;;;;;5031678;28;20429;-67
2022/03/11 08:30:27;;;;;;;18.67;15.07;;;9.80;49.80;;;;;;5024489;28;20413;-68
2022/03/11 08:32:53;;;;;;;16.70;12.97;;;9.80;50.50;;;;;;5023166;28;20198;-67
2022/03/11 08:35:19;;;;;;;19.13;15.87;;;9.70;49.80;;;;;;5014119;28;20428;-67
2022/03/11 08:37:45;;;;;;;19.43;13.47;;;9.70;50.30;;;;;;5032278;28;20923;-68
2022/03/11 08:40:13;;;;;;;20.53;16.30;;;9.80;50.20;;;;;;5031804;28;20432;-67
2022/03/11 08:42:40;;;;;;;15.57;12.80;;;9.80;49.90;;;;;;5028277;28;20549;-75
2022/03/11 08:45:08;;;;;;;16.93;13.73;;;9.80;50.40;;;;;;5027818;28;20423;-68
2022/03/11 08:47:34;;;;;;;17.07;13.43;;;9.90;49.70;;;;;;5020912;28;20495;-67
2022/03/11 08:50:02;;;;;;;16.60;14.10;;;10.00;49.10;;;;;;5025462;28;20915;-67
2022/03/11 08:52:29;;;;;;;17.10;12.83;;;9.90;49.10;;;;;;5020500;28;20423;-67
2022/03/11 08:54:55;;;;;;;16.07;13.30;;;10.00;48.80;;;;;;5027932;28;20414;-67
2022/03/11 08:57:21;;;;;;;22.60;16.97;;;10.30;49.50;;;;;;5032282;28;20453;-67
2022/03/11 08:59:47;;;;;;;16.70;13.40;;;10.40;48.90;;;;;;5030727;28;20454;-67
2022/03/11 09:02:15;;;;;;;19.20;14.20;;;10.40;48.60;;;;;;5020355;28;20468;-71
2022/03/11 09:04:41;;;;;;;19.20;15.10;;;10.40;48.00;;;;;;5021710;28;20180;-74
2022/03/11 09:07:07;;;;;;;15.10;13.07;;;10.40;47.80;;;;;;5031435;28;20411;-67
2022/03/11 09:09:36;;;;;;;15.07;12.50;;;10.50;48.20;;;;;;5031496;28;20508;-67
2022/03/11 09:12:03;;;;;;;17.20;13.50;;;10.60;48.30;;;;;;5013138;28;20461;-67
2022/03/11 09:14:30;;;;;;;17.40;13.40;;;10.70;48.50;;;;;;5017868;28;20424;-67
2022/03/11 09:16:56;;;;;;;15.27;13.67;;;10.80;47.50;;;;;;5024510;28;20416;-68
2022/03/11 09:19:21;;;;;;;15.90;13.60;;;10.80;47.10;;;;;;5025522;28;20955;-68
2022/03/11 09:21:48;;;;;;;15.80;12.50;;;10.70;47.00;;;;;;5023695;28;20466;-67
2022/03/11 09:24:13;;;;;;;21.23;15.77;;;10.80;46.80;;;;;;5021629;28;20181;-67
2022/03/11 09:26:39;;;;;;;21.23;17.60;;;10.90;47.50;;;;;;5022012;28;20412;-76
2022/03/11 09:29:06;;;;;;;13.93;12.43;;;11.20;47.80;;;;;;5023173;28;20187;-68
2022/03/11 09:31:32;;;;;;;14.93;13.13;;;11.50;47.60;;;;;;5006363;28;20538;-67
2022/03/11 09:33:58;;;;;;;16.93;15.00;;;11.60;45.90;;;;;;5025131;28;20409;-67
2022/03/11 09:36:25;;;;;;;17.50;12.87;;;11.90;46.10;;;;;;5009380;28;20417;-69
2022/03/11 09:38:51;;;;;;;16.13;14.47;;;12.10;45.90;;;;;;5015150;28;20178;-69
2022/03/11 09:41:19;;;;;;;15.30;13.63;;;12.30;45.30;;;;;;5028813;28;20423;-69
2022/03/11 09:43:45;;;;;;;16.77;13.33;;;12.60;45.30;;;;;;5027007;28;20607;-69
2022/03/11 09:46:11;;;;;;;17.67;14.97;;;12.80;45.00;;;;;;5004211;28;20415;-69
2022/03/11 09:48:36;;;;;;;16.40;12.63;;;13.10;45.20;;;;;;5045501;28;20434;-68
2022/03/11 09:51:03;;;;;;;15.27;13.43;;;13.30;44.20;;;;;;5046310;28;20424;-67
2022/03/11 09:53:29;;;;;;;15.03;12.50;;;13.40;43.40;;;;;;5014623;28;20188;-68
2022/03/11 09:55:55;;;;;;;13.60;12.17;;;13.60;43.80;;;;;;5034392;28;20424;-68
2022/03/11 09:58:21;;;;;;;13.40;11.33;;;13.80;42.90;;;;;;5017678;28;20931;-67
2022/03/11 10:00:49;;;;;;;17.27;15.27;;;13.90;42.90;;;;;;5028058;28;20417;-67
2022/03/11 10:03:15;;;;;;;20.33;15.10;;;14.10;43.40;;;;;;5015227;28;20472;-67
2022/03/11 10:05:52;;;;;;;14.53;13.03;;;14.40;42.60;;;;;;5026508;28;20832;-80
2022/03/11 10:08:40;;;;;;;19.30;13.80;;;14.60;42.30;;;;;;5035308;28;20456;-67
2022/03/11 10:11:19;;;;;;;15.80;13.53;;;14.90;42.60;;;;;;5010054;28;20416;-67
2022/03/11 10:13:45;;;;;;;16.33;13.57;;;15.20;42.50;;;;;;5018597;28;20905;-69
2022/03/11 10:16:22;;;;;;;14.60;13.10;;;15.50;42.60;;;;;;5034893;28;20511;-67
2022/03/11 10:18:58;;;;;;;16.43;13.77;;;15.50;40.30;;;;;;5033951;28;20431;-68
2022/03/11 10:21:32;;;;;;;13.90;12.20;;;15.40;39.90;;;;;;5034417;28;20510;-67
2022/03/11 10:23:59;;;;;;;15.43;13.93;;;15.50;40.80;;;;;;5033898;28;20768;-68
2022/03/11 10:26:36;;;;;;;14.30;12.80;;;15.60;40.90;;;;;;5033566;28;20421;-68
2022/03/11 10:29:05;;;;;;;15.50;13.77;;;15.80;41.20;;;;;;5033522;28;20421;-76
2022/03/11 10:31:35;;;;;;;16.53;14.83;;;16.20;40.20;;;;;;5028101;28;20475;-68
2022/03/11 10:34:18;;;;;;;15.00;13.50;;;16.60;40.40;;;;;;5026815;28;20434;-67
2022/03/11 10:37:12;;;;;;;14.80;13.20;;;16.80;38.40;;;;;;5021945;28;20461;-79
2022/03/11 10:39:43;;;;;;;15.10;13.60;;;16.20;38.80;;;;;;5025485;28;20412;-67
2022/03/11 10:42:17;;;;;;;15.40;13.83;;;16.50;39.00;;;;;;5032774;28;20528;-66
2022/03/11 10:44:58;;;;;;;16.80;13.53;;;16.40;38.50;;;;;;5032926;28;20428;-73
2022/03/11 10:47:32;;;;;;;13.93;12.37;;;16.40;38.50;;;;;;4999380;28;20507;-67
2022/03/11 10:50:01;;;;;;;14.20;12.80;;;16.50;38.60;;;;;;5016952;28;20946;-68
2022/03/11 10:52:43;;;;;;;17.00;13.23;;;15.90;37.60;;;;;;5028756;28;20429;-65
2022/03/11 10:55:26;;;;;;;15.30;13.70;;;16.00;39.90;;;;;;5031929;28;20989;-65
2022/03/11 10:57:57;;;;;;;14.57;11.80;;;16.40;38.30;;;;;;5032578;28;20421;-65
2022/03/11 11:00:27;;;;;;;13.53;12.13;;;16.50;39.60;;;;;;5017827;28;20416;-65
2022/03/11 11:02:58;;;;;;;16.87;13.87;;;16.80;38.50;;;;;;5032661;28;20492;-65
2022/03/11 11:05:25;;;;;;;12.63;11.40;;;17.10;39.00;;;;;;5033679;28;20777;-65
2022/03/11 11:07:51;;;;;;;14.03;12.67;;;17.50;39.40;;;;;;5032731;28;20441;-65
2022/03/11 11:10:20;;;;;;;16.27;14.67;;;17.70;37.80;;;;;;5033314;28;20425;-65
2022/03/11 11:12:46;;;;;;;14.33;12.90;;;17.70;37.60;;;;;;5033066;28;20477;-69
2022/03/11 11:15:15;;;;;;;14.50;12.93;;;17.90;38.00;;;;;;5033263;28;20421;-66
2022/03/11 11:17:45;;;;;;;15.50;13.20;;;18.10;38.00;;;;;;5015543;28;20591;-65
2022/03/11 11:20:38;;;;;;;15.83;14.23;;;18.20;36.60;;;;;;5015236;28;20437;-65
2022/03/11 11:23:06;;;;;;;14.33;12.93;;;18.10;36.30;;;;;;5021498;28;20948;-65
2022/03/11 11:25:34;;;;;;;14.53;13.03;;;18.10;37.20;;;;;;5033424;28;20968;-64
2022/03/11 11:28:16;;;;;;;15.50;13.00;;;18.10;36.30;;;;;;5032126;28;20751;-65
2022/03/11 11:30:44;;;;;;;15.00;13.40;;;18.20;37.50;;;;;;5033335;28;20400;-64
2022/03/11 11:33:10;;;;;;;16.70;13.33;;;18.40;36.60;;;;;;5032217;28;20483;-65
2022/03/11 11:35:37;;;;;;;13.70;12.23;;;18.00;35.80;;;;;;5033206;28;20893;-64
2022/03/11 11:38:27;;;;;;;15.57;12.67;;;17.90;37.60;;;;;;5031879;28;20405;-64
2022/03/11 11:40:55;;;;;;;14.20;12.80;;;18.20;37.60;;;;;;5032436;28;20453;-65
2022/03/11 11:43:27;;;;;;;14.70;13.20;;;18.60;37.20;;;;;;5032938;28;20532;-65
2022/03/11 11:46:04;;;;;;;16.53;12.70;;;18.70;36.40;;;;;;5033288;28;20430;-65
2022/03/11 11:48:33;;;;;;;15.47;13.80;;;19.00;36.30;;;;;;5032621;28;20768;-65
2022/03/11 11:51:05;;;;;;;18.47;14.07;;;18.80;35.40;;;;;;5037399;28;20429;-64
2022/03/11 11:53:45;;;;;;;14.30;12.80;;;18.30;35.10;;;;;;5032529;28;20467;-64
2022/03/11 11:56:30;;;;;;;16.50;12.73;;;18.30;35.80;;;;;;5024925;28;20848;-64
2022/03/11 11:58:59;;;;;;;14.60;13.07;;;18.40;36.10;;;;;;5030584;28;20409;-65
2022/03/11 12:01:43;;;;;;;15.33;13.83;;;18.40;36.60;;;;;;5015147;28;20484;-65
2022/03/11 12:04:30;;;;;;;15.90;14.20;;;18.70;36.50;;;;;;5013975;28;21118;-64
2022/03/11 12:07:00;;;;;;;15.07;13.57;;;18.70;34.60;;;;;;5031276;28;20421;-65
2022/03/11 12:10:00;;;;;;;14.90;13.50;;;19.00;36.80;;;;;;5032751;28;20425;-64
2022/03/11 12:12:24;;;;;;;15.43;13.93;;;19.00;35.70;;;;;;5032291;28;20792;-64
2022/03/11 12:15:05;;;;;;;14.43;13.03;;;18.80;36.20;;;;;;5020875;28;20417;-68
2022/03/11 12:17:58;;;;;;;13.33;11.90;;;18.80;35.60;;;;;;5011201;28;20435;-65
2022/03/11 12:20:33;;;;;;;15.50;13.93;;;18.60;35.50;;;;;;5013948;28;20826;-64
2022/03/11 12:23:06;;;;;;;15.53;13.53;;;18.00;35.80;;;;;;5013320;28;20468;-64
2022/03/11 12:25:36;;;;;;;14.67;13.07;;;18.00;36.00;;;;;;5030232;28;20528;-65
2022/03/11 12:28:25;;;;;;;14.47;12.97;;;18.20;36.10;;;;;;5030425;28;20417;-64
2022/03/11 12:30:50;;;;;;;14.77;13.20;;;17.90;35.20;;;;;;5013561;28;20409;-81
2022/03/11 12:33:20;;;;;;;14.40;12.60;;;17.80;35.50;;;;;;5031140;28;20948;-69
2022/03/11 12:35:48;;;;;;;14.83;13.17;;;17.60;36.50;;;;;;5044027;28;20586;-69
2022/03/11 12:38:22;;;;;;;14.77;12.70;;;17.60;37.20;;;;;;4997784;28;21003;-68